Time;durP1;ratioP1;P1;durP2;ratioP2;P2;SDS_P1;SDS_P2;PMS_P1;PMS_P2;Temp;Humidity;BMP_temperature;BMP_pressure;BME280_temperature;BME280_humidity;BME280_pressure;Samples;Min_cycle;Max_cycle;Signal;HPM_P1;HPM_P2
2021/08/16 00:01:24;;;;;;;5.90;4.50;;;;;;;;;;5097685;28;20230;-63
2021/08/16 00:03:52;;;;;;;7.37;4.40;;;;;;;;;;5097670;28;20207;-64
2021/08/16 00:06:21;;;;;;;6.97;4.20;;;;;;;;;;5097674;28;20319;-64
2021/08/16 00:08:49;;;;;;;5.30;4.30;;;;;;;;;;5098229;28;20214;-64
2021/08/16 00:11:17;;;;;;;6.13;4.73;;;;;;;;;;5097728;28;20208;-63
2021/08/16 00:13:45;;;;;;;5.87;3.90;;;;;;;;;;5114876;28;20197;-63
2021/08/16 00:16:13;;;;;;;8.90;4.70;;;;;;;;;;5117858;28;20236;-63
2021/08/16 00:18:43;;;;;;;7.23;3.93;;;;;;;;;;5106341;28;20251;-63
2021/08/16 00:21:11;;;;;;;10.73;4.87;;;;;;;;;;5097261;28;20596;-63
2021/08/16 00:23:41;;;;;;;6.40;4.20;;;;;;;;;;5097288;28;20676;-63
2021/08/16 00:26:09;;;;;;;11.17;4.37;;;;;;;;;;5097501;28;20240;-63
2021/08/16 00:28:37;;;;;;;7.00;4.40;;;;;;;;;;5097351;28;20569;-63
2021/08/16 00:31:05;;;;;;;7.90;4.50;;;;;;;;;;5097498;28;20213;-63
2021/08/16 00:33:33;;;;;;;12.10;4.00;;;;;;;;;;5097549;28;20207;-63
2021/08/16 00:36:01;;;;;;;6.57;4.33;;;;;;;;;;5097340;28;20215;-63
2021/08/16 00:38:29;;;;;;;9.33;4.80;;;;;;;;;;5097508;28;20217;-63
2021/08/16 00:40:59;;;;;;;6.23;4.27;;;;;;;;;;5097120;28;20241;-63
2021/08/16 00:43:27;;;;;;;6.50;4.53;;;;;;;;;;5097205;28;20211;-63
2021/08/16 00:45:55;;;;;;;8.87;4.40;;;;;;;;;;5097504;28;20225;-63
2021/08/16 00:48:23;;;;;;;6.60;4.20;;;;;;;;;;5097423;28;20206;-63
2021/08/16 00:50:51;;;;;;;5.90;4.63;;;;;;;;;;5097163;28;20214;-63
2021/08/16 00:53:19;;;;;;;8.10;4.60;;;;;;;;;;5097390;28;20226;-63
2021/08/16 00:55:48;;;;;;;6.10;4.17;;;;;;;;;;5098229;28;20205;-63
2021/08/16 00:58:17;;;;;;;6.83;4.47;;;;;;;;;;5101347;28;20204;-63
2021/08/16 01:00:45;;;;;;;7.13;4.50;;;;;;;;;;5101230;28;20239;-63
2021/08/16 01:03:14;;;;;;;7.17;4.60;;;;;;;;;;5101335;28;20316;-63
2021/08/16 01:05:42;;;;;;;7.10;4.47;;;;;;;;;;5100725;28;20739;-63
2021/08/16 01:08:10;;;;;;;8.23;4.73;;;;;;;;;;5101414;28;20204;-63
2021/08/16 01:10:38;;;;;;;5.57;4.00;;;;;;;;;;5101225;28;20212;-65
2021/08/16 01:13:06;;;;;;;6.30;4.40;;;;;;;;;;5113947;28;20311;-65
2021/08/16 01:15:35;;;;;;;11.03;4.47;;;;;;;;;;5121583;28;20207;-65
2021/08/16 01:18:03;;;;;;;7.97;4.40;;;;;;;;;;5115974;28;20219;-63
2021/08/16 01:20:31;;;;;;;6.00;4.00;;;;;;;;;;5100981;28;20209;-65
2021/08/16 01:23:00;;;;;;;9.03;4.73;;;;;;;;;;5101126;28;20229;-65
2021/08/16 01:25:28;;;;;;;7.97;5.27;;;;;;;;;;5100872;28;20208;-65
2021/08/16 01:27:57;;;;;;;9.77;4.90;;;;;;;;;;5100639;28;20700;-65
2021/08/16 01:30:25;;;;;;;6.90;5.10;;;;;;;;;;5100963;28;20212;-65
2021/08/16 01:32:53;;;;;;;9.60;4.90;;;;;;;;;;5100462;28;20226;-65
2021/08/16 01:35:22;;;;;;;6.20;4.80;;;;;;;;;;5100635;28;20215;-66
2021/08/16 01:37:50;;;;;;;7.87;4.23;;;;;;;;;;5100588;28;20199;-63
2021/08/16 01:40:19;;;;;;;7.30;4.03;;;;;;;;;;5100493;28;20243;-63
2021/08/16 01:42:47;;;;;;;4.90;4.20;;;;;;;;;;5100410;28;21685;-64
2021/08/16 01:45:16;;;;;;;8.60;4.57;;;;;;;;;;5100483;28;20225;-64
2021/08/16 01:47:44;;;;;;;5.43;4.30;;;;;;;;;;5100339;28;20230;-66
2021/08/16 01:50:12;;;;;;;7.13;4.47;;;;;;;;;;5100102;28;20204;-67
2021/08/16 01:52:40;;;;;;;4.77;4.00;;;;;;;;;;5100404;28;20227;-66
2021/08/16 01:55:08;;;;;;;6.80;4.10;;;;;;;;;;5100319;28;20222;-64
2021/08/16 01:57:36;;;;;;;5.50;4.50;;;;;;;;;;5100356;28;20213;-64
2021/08/16 02:00:05;;;;;;;4.30;3.80;;;;;;;;;;5100320;28;20205;-63
2021/08/16 02:02:34;;;;;;;8.87;4.67;;;;;;;;;;5099722;28;20257;-64
2021/08/16 02:05:03;;;;;;;7.27;4.40;;;;;;;;;;5099847;28;20207;-64
2021/08/16 02:07:31;;;;;;;6.93;4.70;;;;;;;;;;5099835;28;20230;-64
2021/08/16 02:09:59;;;;;;;7.90;4.27;;;;;;;;;;5099871;28;20218;-65
2021/08/16 02:12:27;;;;;;;7.03;4.13;;;;;;;;;;5106023;28;20670;-64
2021/08/16 02:14:55;;;;;;;5.77;4.10;;;;;;;;;;5120602;28;20734;-64
2021/08/16 02:17:23;;;;;;;7.80;4.10;;;;;;;;;;5086594;28;20256;-64
2021/08/16 02:19:52;;;;;;;6.93;4.43;;;;;;;;;;5099424;28;20669;-64
2021/08/16 02:22:20;;;;;;;6.93;4.10;;;;;;;;;;5099719;28;20711;-64
2021/08/16 02:24:48;;;;;;;8.87;4.53;;;;;;;;;;5099689;28;20208;-64
2021/08/16 02:27:16;;;;;;;7.40;4.20;;;;;;;;;;5099815;28;20229;-63
2021/08/16 02:29:44;;;;;;;7.00;4.33;;;;;;;;;;5099987;28;20215;-64
2021/08/16 02:32:12;;;;;;;5.57;4.03;;;;;;;;;;5099479;28;20573;-64
2021/08/16 02:34:40;;;;;;;4.77;3.93;;;;;;;;;;5099355;28;20215;-64
2021/08/16 02:37:10;;;;;;;7.00;4.47;;;;;;;;;;5099299;28;20685;-64
2021/08/16 02:39:38;;;;;;;6.83;4.30;;;;;;;;;;5099243;28;20588;-64
2021/08/16 02:42:06;;;;;;;6.70;4.40;;;;;;;;;;5099580;28;20238;-64
2021/08/16 02:44:34;;;;;;;7.30;4.63;;;;;;;;;;5099522;28;20214;-64
2021/08/16 02:47:02;;;;;;;10.03;4.43;;;;;;;;;;5099437;28;20223;-64
2021/08/16 02:49:30;;;;;;;7.80;5.00;;;;;;;;;;5098988;28;20215;-64
2021/08/16 02:51:58;;;;;;;4.93;4.43;;;;;;;;;;5099188;28;20271;-64
2021/08/16 02:54:27;;;;;;;6.13;3.73;;;;;;;;;;5099199;28;20214;-64
2021/08/16 02:56:55;;;;;;;4.67;3.83;;;;;;;;;;5099351;28;20208;-63
2021/08/16 02:59:23;;;;;;;6.10;4.43;;;;;;;;;;5099249;28;20205;-64
2021/08/16 03:01:51;;;;;;;7.30;4.57;;;;;;;;;;5098824;28;20260;-63
2021/08/16 03:04:19;;;;;;;6.83;4.13;;;;;;;;;;5098595;28;20213;-64
2021/08/16 03:06:47;;;;;;;6.13;4.10;;;;;;;;;;5098724;28;20676;-64
2021/08/16 03:09:15;;;;;;;6.17;4.37;;;;;;;;;;5099159;28;20209;-64
2021/08/16 03:11:44;;;;;;;8.70;4.10;;;;;;;;;;5099295;28;20252;-64
2021/08/16 03:14:12;;;;;;;6.23;4.33;;;;;;;;;;5119200;28;20200;-64
2021/08/16 03:16:40;;;;;;;5.17;4.53;;;;;;;;;;5118847;28;20212;-64
2021/08/16 03:19:08;;;;;;;7.50;4.40;;;;;;;;;;5102502;27;20215;-64
2021/08/16 03:21:36;;;;;;;7.70;4.70;;;;;;;;;;5098610;28;20250;-63
2021/08/16 03:24:05;;;;;;;6.30;4.43;;;;;;;;;;5098732;28;20201;-64
2021/08/16 03:26:33;;;;;;;6.33;4.43;;;;;;;;;;5098498;28;20299;-64
2021/08/16 03:29:02;;;;;;;6.63;4.57;;;;;;;;;;5098379;28;20231;-64
2021/08/16 03:31:30;;;;;;;7.20;4.73;;;;;;;;;;5098085;28;20800;-64
2021/08/16 03:33:58;;;;;;;6.17;3.93;;;;;;;;;;5098282;28;20252;-63
2021/08/16 03:36:26;;;;;;;4.77;3.77;;;;;;;;;;5098509;28;20238;-64
2021/08/16 03:38:54;;;;;;;7.73;4.43;;;;;;;;;;5098046;28;20215;-64
2021/08/16 03:41:22;;;;;;;6.47;4.70;;;;;;;;;;5097969;28;20668;-64
2021/08/16 03:43:50;;;;;;;6.97;4.07;;;;;;;;;;5098241;28;20555;-64
2021/08/16 03:46:19;;;;;;;5.67;4.23;;;;;;;;;;5098031;28;20681;-64
2021/08/16 03:48:47;;;;;;;5.50;3.53;;;;;;;;;;5098064;28;20270;-64
2021/08/16 03:51:15;;;;;;;6.93;4.20;;;;;;;;;;5098104;28;20251;-64
2021/08/16 03:53:43;;;;;;;6.47;3.97;;;;;;;;;;5098240;28;20208;-64
2021/08/16 03:56:11;;;;;;;7.43;4.20;;;;;;;;;;5098105;28;20208;-64
2021/08/16 03:58:41;;;;;;;7.00;4.03;;;;;;;;;;5097950;28;20628;-64
2021/08/16 04:01:09;;;;;;;8.17;4.70;;;;;;;;;;5097704;28;20234;-64
2021/08/16 04:03:41;;;;;;;8.50;4.50;;;;;;;;;;5098136;28;20207;-63
2021/08/16 04:06:09;;;;;;;7.07;4.30;;;;;;;;;;5098332;28;20210;-64
2021/08/16 04:08:39;;;;;;;6.67;3.97;;;;;;;;;;5097676;28;20570;-64
2021/08/16 04:11:08;;;;;;;9.40;4.90;;;;;;;;;;5097980;28;20207;-64
2021/08/16 04:13:36;;;;;;;5.37;4.17;;;;;;;;;;5113309;28;20257;-64
2021/08/16 04:16:04;;;;;;;4.97;3.77;;;;;;;;;;5117813;28;20597;-63
2021/08/16 04:18:32;;;;;;;6.53;4.50;;;;;;;;;;5107435;28;20225;-64
2021/08/16 04:21:02;;;;;;;4.97;3.77;;;;;;;;;;5097297;28;20205;-64
2021/08/16 04:23:30;;;;;;;6.63;4.40;;;;;;;;;;5097497;28;20215;-65
2021/08/16 04:25:58;;;;;;;5.30;4.03;;;;;;;;;;5097740;28;20289;-63
2021/08/16 04:28:26;;;;;;;5.87;4.37;;;;;;;;;;5097484;28;20583;-63
2021/08/16 04:30:54;;;;;;;5.83;3.63;;;;;;;;;;5097583;28;20206;-62
2021/08/16 04:33:24;;;;;;;4.23;3.70;;;;;;;;;;5097307;28;20226;-63
2021/08/16 04:35:52;;;;;;;5.20;4.10;;;;;;;;;;5097144;28;20292;-63
2021/08/16 04:38:23;;;;;;;5.57;4.07;;;;;;;;;;5097612;28;20279;-62
2021/08/16 04:40:51;;;;;;;6.37;3.83;;;;;;;;;;5097062;28;20316;-62
2021/08/16 04:43:20;;;;;;;6.60;4.23;;;;;;;;;;5097166;28;20638;-63
2021/08/16 04:45:48;;;;;;;5.67;4.20;;;;;;;;;;5097705;28;20292;-64
2021/08/16 04:48:16;;;;;;;7.00;4.30;;;;;;;;;;5097189;28;20236;-63
2021/08/16 04:50:44;;;;;;;5.33;3.83;;;;;;;;;;5096916;28;20208;-63
2021/08/16 04:53:12;;;;;;;7.07;4.00;;;;;;;;;;5096788;28;20230;-64
2021/08/16 04:55:41;;;;;;;6.13;4.23;;;;;;;;;;5097507;28;20289;-63
2021/08/16 04:58:10;;;;;;;5.87;4.10;;;;;;;;;;5096980;28;20690;-62
2021/08/16 05:00:38;;;;;;;7.07;3.97;;;;;;;;;;5097185;28;20213;-63
2021/08/16 05:03:06;;;;;;;5.23;4.30;;;;;;;;;;5097402;28;20256;-62
2021/08/16 05:05:34;;;;;;;5.90;3.97;;;;;;;;;;5096758;28;20215;-63
2021/08/16 05:08:02;;;;;;;7.47;3.43;;;;;;;;;;5097316;28;20688;-63
2021/08/16 05:10:31;;;;;;;6.33;4.17;;;;;;;;;;5097277;28;20211;-63
2021/08/16 05:13:01;;;;;;;7.27;4.13;;;;;;;;;;5108986;28;20229;-64
2021/08/16 05:15:29;;;;;;;6.13;4.00;;;;;;;;;;5117709;28;20213;-62
2021/08/16 05:18:00;;;;;;;4.97;3.60;;;;;;;;;;5113119;28;20648;-64
2021/08/16 05:20:28;;;;;;;5.23;3.47;;;;;;;;;;5096297;28;20240;-64
2021/08/16 05:22:56;;;;;;;4.53;3.47;;;;;;;;;;5096967;28;20232;-64
2021/08/16 05:25:24;;;;;;;5.37;3.70;;;;;;;;;;5097253;28;20205;-64
2021/08/16 05:27:52;;;;;;;6.27;4.30;;;;;;;;;;5096994;28;20221;-64
2021/08/16 05:30:22;;;;;;;10.00;4.47;;;;;;;;;;5093532;28;20624;-64
2021/08/16 05:32:50;;;;;;;6.43;4.23;;;;;;;;;;5096807;28;20225;-64
2021/08/16 05:35:18;;;;;;;9.70;4.63;;;;;;;;;;5096390;28;20202;-64
2021/08/16 05:37:46;;;;;;;5.17;3.37;;;;;;;;;;5091256;28;20570;-64
2021/08/16 05:40:15;;;;;;;5.83;3.20;;;;;;;;;;5096453;28;20796;-64
2021/08/16 05:42:43;;;;;;;3.40;2.80;;;;;;;;;;5099561;28;20229;-64
2021/08/16 05:45:11;;;;;;;5.00;3.63;;;;;;;;;;5100568;28;20286;-64
2021/08/16 05:47:41;;;;;;;5.47;4.50;;;;;;;;;;5100271;28;20207;-64
2021/08/16 05:50:09;;;;;;;6.80;3.33;;;;;;;;;;5100141;28;20224;-64
2021/08/16 05:52:38;;;;;;;4.90;3.40;;;;;;;;;;5100442;28;20218;-64
2021/08/16 05:55:07;;;;;;;7.60;3.87;;;;;;;;;;5100171;28;20657;-64
2021/08/16 05:57:35;;;;;;;7.83;3.53;;;;;;;;;;5100390;28;20216;-64
2021/08/16 06:00:03;;;;;;;4.63;2.90;;;;;;;;;;5100199;28;20563;-64
2021/08/16 06:02:31;;;;;;;3.90;3.13;;;;;;;;;;5100194;28;20270;-64
2021/08/16 06:05:01;;;;;;;6.53;3.43;;;;;;;;;;5099986;28;20215;-63
2021/08/16 06:07:29;;;;;;;5.13;3.50;;;;;;;;;;5100000;28;20303;-64
2021/08/16 06:10:02;;;;;;;4.80;3.30;;;;;;;;;;5100142;28;20225;-63
2021/08/16 06:12:30;;;;;;;4.97;3.23;;;;;;;;;;5106369;28;20307;-62
2021/08/16 06:14:58;;;;;;;5.83;3.27;;;;;;;;;;5120732;28;20208;-63
2021/08/16 06:17:29;;;;;;;5.20;3.57;;;;;;;;;;5086638;28;20689;-64
2021/08/16 06:19:57;;;;;;;3.03;2.60;;;;;;;;;;5099286;28;20203;-63
2021/08/16 06:22:26;;;;;;;3.27;2.77;;;;;;;;;;5100021;28;20225;-62
2021/08/16 06:24:54;;;;;;;5.30;3.00;;;;;;;;;;5100024;28;20223;-62
2021/08/16 06:27:22;;;;;;;4.73;3.63;;;;;;;;;;5099770;28;20209;-64
2021/08/16 06:29:50;;;;;;;4.97;2.77;;;;;;;;;;5099616;28;20553;-64
2021/08/16 06:32:18;;;;;;;3.03;2.63;;;;;;;;;;5099733;28;20227;-64
2021/08/16 06:34:47;;;;;;;2.63;2.30;;;;;;;;;;5099359;28;20298;-64
2021/08/16 06:37:16;;;;;;;3.00;2.70;;;;;;;;;;5099475;28;20210;-64
2021/08/16 06:39:46;;;;;;;3.50;2.00;;;;;;;;;;5099025;28;20239;-64
2021/08/16 06:42:14;;;;;;;4.27;2.20;;;;;;;;;;5099284;28;20591;-64
2021/08/16 06:44:42;;;;;;;3.00;2.70;;;;;;;;;;5099404;28;20257;-64
2021/08/16 06:47:10;;;;;;;3.77;2.57;;;;;;;;;;5099110;28;20209;-64
2021/08/16 06:49:38;;;;;;;5.30;2.40;;;;;;;;;;5098901;28;20714;-64
2021/08/16 06:52:06;;;;;;;7.70;2.40;;;;;;;;;;5099482;28;20231;-64
2021/08/16 06:54:34;;;;;;;3.07;2.40;;;;;;;;;;5098350;28;20237;-64
2021/08/16 06:57:04;;;;;;;3.30;2.20;;;;;;;;;;5098982;28;20202;-64
2021/08/16 06:59:33;;;;;;;4.23;2.40;;;;;;;;;;5098980;28;20233;-64
2021/08/16 07:02:01;;;;;;;2.53;2.10;;;;;;;;;;5098872;28;20231;-64
2021/08/16 07:04:29;;;;;;;2.37;1.60;;;;;;;;;;5098975;28;20233;-64
2021/08/16 07:06:57;;;;;;;3.23;2.33;;;;;;;;;;5099232;28;20231;-64
2021/08/16 07:09:25;;;;;;;5.30;2.40;;;;;;;;;;5098901;28;20235;-64
2021/08/16 07:11:55;;;;;;;3.53;2.00;;;;;;;;;;5100689;28;20213;-64
2021/08/16 07:14:25;;;;;;;1.77;1.67;;;;;;;;;;5119407;28;20262;-64
2021/08/16 07:16:53;;;;;;;3.20;1.77;;;;;;;;;;5119240;28;20200;-64
2021/08/16 07:19:21;;;;;;;2.87;2.10;;;;;;;;;;5101770;28;20207;-64
2021/08/16 07:21:49;;;;;;;3.23;1.60;;;;;;;;;;5098636;28;20235;-64
2021/08/16 07:24:19;;;;;;;1.97;1.60;;;;;;;;;;5098810;28;20290;-64
2021/08/16 07:26:46;;;;;;;1.70;1.60;;;;;;;;;;5098626;28;20244;-64
2021/08/16 07:29:14;;;;;;;3.77;2.13;;;;;;;;;;5098609;28;20251;-64
2021/08/16 07:31:44;;;;;;;2.83;1.80;;;;;;;;;;5098228;28;20231;-65
2021/08/16 07:34:12;;;;;;;2.73;1.90;;;;;;;;;;5098046;28;20290;-63
2021/08/16 07:36:40;;;;;;;5.07;1.90;;;;;;;;;;5098244;28;20554;-64
2021/08/16 07:39:08;;;;;;;3.47;2.13;;;;;;;;;;5098519;28;20230;-65
2021/08/16 07:41:36;;;;;;;2.33;1.93;;;;;;;;;;5098393;28;20227;-64
2021/08/16 07:44:04;;;;;;;5.43;1.83;;;;;;;;;;5098157;28;20582;-65
2021/08/16 07:46:31;;;;;;;4.37;1.97;;;;;;;;;;5098326;28;20216;-63
2021/08/16 07:49:01;;;;;;;2.50;2.17;;;;;;;;;;5098050;28;20238;-65
2021/08/16 07:51:29;;;;;;;3.07;1.97;;;;;;;;;;5097774;28;20311;-64
2021/08/16 07:53:57;;;;;;;1.87;1.77;;;;;;;;;;5098192;28;20215;-64
2021/08/16 07:56:25;;;;;;;2.80;2.20;;;;;;;;;;5098258;28;20209;-64
2021/08/16 07:58:53;;;;;;;4.13;1.90;;;;;;;;;;5098092;28;20217;-65
2021/08/16 08:01:21;;;;;;;3.83;2.13;;;;;;;;;;5097896;28;20701;-65
2021/08/16 08:03:49;;;;;;;4.03;2.20;;;;;;;;;;5097494;28;20550;-65
2021/08/16 08:06:19;;;;;;;2.50;1.80;;;;;;;;;;5097487;28;20643;-65
2021/08/16 08:08:47;;;;;;;2.83;1.93;;;;;;;;;;5097812;28;20214;-64
2021/08/16 08:11:15;;;;;;;2.70;2.07;;;;;;;;;;5097632;28;20228;-65
2021/08/16 08:13:43;;;;;;;2.37;1.60;;;;;;;;;;5114651;28;20303;-65
2021/08/16 08:16:10;;;;;;;5.90;1.90;;;;;;;;;;5118230;28;20239;-65
2021/08/16 08:18:39;;;;;;;3.97;1.80;;;;;;;;;;5106388;28;20234;-65
2021/08/16 08:21:07;;;;;;;3.03;1.80;;;;;;;;;;5097524;28;20205;-65
2021/08/16 08:23:36;;;;;;;3.03;1.50;;;;;;;;;;5097726;28;20213;-62
2021/08/16 08:26:04;;;;;;;4.03;2.07;;;;;;;;;;5097469;28;20201;-64
2021/08/16 08:28:32;;;;;;;4.27;2.00;;;;;;;;;;5097670;28;20210;-65
2021/08/16 08:31:00;;;;;;;4.97;2.43;;;;;;;;;;5097468;28;20252;-65
2021/08/16 08:33:28;;;;;;;3.57;2.20;;;;;;;;;;5097533;28;20216;-65
2021/08/16 08:35:56;;;;;;;5.97;2.30;;;;;;;;;;5097564;28;20205;-65
2021/08/16 08:38:24;;;;;;;3.40;1.90;;;;;;;;;;5097598;28;20212;-65
2021/08/16 08:40:56;;;;;;;4.80;1.77;;;;;;;;;;5097148;28;20232;-62
2021/08/16 08:43:25;;;;;;;2.73;2.10;;;;;;;;;;5097271;28;20715;-62
2021/08/16 08:45:54;;;;;;;7.37;2.30;;;;;;;;;;5097514;28;20211;-63
2021/08/16 08:48:22;;;;;;;3.30;2.00;;;;;;;;;;5097510;28;20234;-62
2021/08/16 08:50:50;;;;;;;5.10;2.20;;;;;;;;;;5097085;28;20233;-62
2021/08/16 08:53:18;;;;;;;5.47;3.03;;;;;;;;;;5097193;28;20230;-63
2021/08/16 08:55:46;;;;;;;6.80;2.63;;;;;;;;;;5097287;28;20205;-62
2021/08/16 08:58:18;;;;;;;6.80;2.00;;;;;;;;;;5097582;28;20254;-62
2021/08/16 09:00:46;;;;;;;3.90;2.03;;;;;;;;;;5097517;28;20216;-63
2021/08/16 09:03:14;;;;;;;4.27;2.60;;;;;;;;;;5096903;28;20661;-65
2021/08/16 09:05:50;;;;;;;7.63;2.83;;;;;;;;;;5097085;28;20210;-63
2021/08/16 09:08:26;;;;;;;2.93;2.07;;;;;;;;;;5097336;28;20672;-62
2021/08/16 09:11:04;;;;;;;6.47;2.30;;;;;;;;;;5097355;28;20699;-63
2021/08/16 09:13:34;;;;;;;5.10;2.50;;;;;;;;;;5112884;28;20285;-65
2021/08/16 09:16:09;;;;;;;3.00;1.87;;;;;;;;;;5117574;28;20249;-65
2021/08/16 09:18:37;;;;;;;4.73;2.60;;;;;;;;;;5110005;28;20247;-65
2021/08/16 09:21:06;;;;;;;4.40;2.13;;;;;;;;;;5100928;28;20571;-65
2021/08/16 09:23:40;;;;;;;6.07;2.23;;;;;;;;;;5100910;28;20211;-65
2021/08/16 09:26:10;;;;;;;6.37;2.37;;;;;;;;;;5100949;28;20211;-65
2021/08/16 09:28:39;;;;;;;4.33;2.10;;;;;;;;;;5100777;28;20631;-65
2021/08/16 09:31:14;;;;;;;5.30;2.47;;;;;;;;;;5100502;28;20235;-65
2021/08/16 09:33:53;;;;;;;6.20;2.43;;;;;;;;;;5100490;28;20250;-65
2021/08/16 09:36:21;;;;;;;6.93;2.60;;;;;;;;;;5100829;28;20213;-65
2021/08/16 09:38:49;;;;;;;6.33;2.30;;;;;;;;;;5100813;28;20206;-66
2021/08/16 09:41:21;;;;;;;6.63;2.70;;;;;;;;;;5100423;28;20566;-65
2021/08/16 09:43:51;;;;;;;7.03;2.17;;;;;;;;;;5100784;28;20210;-65
2021/08/16 09:46:20;;;;;;;5.70;2.17;;;;;;;;;;5100250;28;20711;-65
2021/08/16 09:48:58;;;;;;;5.63;2.17;;;;;;;;;;5100349;28;20205;-65
2021/08/16 09:51:26;;;;;;;7.53;2.40;;;;;;;;;;5100009;28;20334;-65
2021/08/16 09:53:55;;;;;;;5.53;2.20;;;;;;;;;;5100263;28;20281;-65
2021/08/16 09:56:23;;;;;;;4.63;2.20;;;;;;;;;;5100608;28;20205;-65
2021/08/16 09:58:53;;;;;;;5.13;2.07;;;;;;;;;;5100294;28;20292;-65
2021/08/16 10:01:21;;;;;;;4.83;2.13;;;;;;;;;;5100096;28;20257;-65
2021/08/16 10:03:49;;;;;;;5.77;2.47;;;;;;;;;;5099785;28;20208;-65
2021/08/16 10:06:19;;;;;;;4.93;2.33;;;;;;;;;;5100509;28;20238;-65
2021/08/16 10:08:50;;;;;;;2.63;1.63;;;;;;;;;;5100233;28;20217;-65
2021/08/16 10:11:19;;;;;;;7.30;2.43;;;;;;;;;;5099933;28;20280;-65
2021/08/16 10:13:49;;;;;;;5.00;1.83;;;;;;;;;;5117157;28;20205;-65
2021/08/16 10:16:22;;;;;;;5.03;1.87;;;;;;;;;;5120121;28;20262;-65
2021/08/16 10:18:53;;;;;;;5.13;1.80;;;;;;;;;;5106736;28;20208;-65
2021/08/16 10:21:22;;;;;;;5.33;2.20;;;;;;;;;;5099669;28;20308;-66
2021/08/16 10:23:51;;;;;;;3.20;2.47;;;;;;;;;;5100027;28;20237;-65
2021/08/16 10:26:27;;;;;;;2.47;1.63;;;;;;;;;;5099822;28;20219;-65
2021/08/16 10:28:56;;;;;;;3.07;1.43;;;;;;;;;;5099536;28;20728;-65
2021/08/16 10:31:29;;;;;;;3.27;2.13;;;;;;;;;;5099456;28;20232;-65
2021/08/16 10:33:57;;;;;;;4.83;2.00;;;;;;;;;;5099568;28;20205;-65
2021/08/16 10:36:26;;;;;;;3.57;2.10;;;;;;;;;;5099327;28;20213;-65
2021/08/16 10:38:55;;;;;;;3.17;1.80;;;;;;;;;;5099642;28;20215;-66
2021/08/16 10:41:26;;;;;;;3.27;2.33;;;;;;;;;;5099455;28;20228;-65
2021/08/16 10:43:54;;;;;;;3.07;1.50;;;;;;;;;;5099295;28;20205;-65
2021/08/16 10:46:23;;;;;;;6.60;2.30;;;;;;;;;;5099415;28;20212;-65
2021/08/16 10:49:03;;;;;;;3.13;1.30;;;;;;;;;;5099051;28;20288;-65
2021/08/16 10:51:42;;;;;;;5.03;2.10;;;;;;;;;;5098989;28;20252;-65
2021/08/16 10:54:10;;;;;;;3.53;1.53;;;;;;;;;;5099099;28;20206;-65
2021/08/16 10:56:38;;;;;;;6.83;1.57;;;;;;;;;;5099453;28;20221;-65
2021/08/16 10:59:06;;;;;;;5.50;2.00;;;;;;;;;;5099183;28;20215;-65
2021/08/16 11:01:35;;;;;;;3.23;1.73;;;;;;;;;;5098923;28;20225;-65
2021/08/16 11:04:32;;;;;;;2.60;1.50;;;;;;;;;;5098635;28;20288;-65
2021/08/16 11:07:01;;;;;;;4.10;2.23;;;;;;;;;;5098959;28;20649;-65
2021/08/16 11:09:30;;;;;;;3.87;1.80;;;;;;;;;;5099123;28;20239;-65
2021/08/16 11:12:04;;;;;;;2.07;1.67;;;;;;;;;;5101109;28;20218;-65
2021/08/16 11:14:34;;;;;;;2.07;1.40;;;;;;;;;;5119467;28;20209;-65
2021/08/16 11:17:02;;;;;;;2.33;1.63;;;;;;;;;;5119208;28;20205;-65
2021/08/16 11:19:46;;;;;;;3.07;1.80;;;;;;;;;;5099705;28;20202;-65
2021/08/16 11:22:16;;;;;;;5.00;1.40;;;;;;;;;;5096639;28;20312;-65
2021/08/16 11:24:45;;;;;;;4.80;1.53;;;;;;;;;;5098857;28;20204;-65
2021/08/16 11:27:20;;;;;;;2.50;1.70;;;;;;;;;;5098558;28;20573;-65
2021/08/16 11:29:56;;;;;;;3.83;1.80;;;;;;;;;;5098491;28;20205;-65
2021/08/16 11:32:24;;;;;;;2.23;1.33;;;;;;;;;;5098797;28;20235;-65
2021/08/16 11:34:55;;;;;;;1.30;1.20;;;;;;;;;;5097977;28;20209;-65
2021/08/16 11:37:25;;;;;;;3.87;1.63;;;;;;;;;;5098681;28;20268;-65
2021/08/16 11:39:54;;;;;;;3.47;1.77;;;;;;;;;;5097792;28;20245;-65
2021/08/16 11:42:42;;;;;;;3.93;1.63;;;;;;;;;;5098216;28;20233;-65
2021/08/16 11:45:11;;;;;;;3.30;1.40;;;;;;;;;;5098582;28;20205;-65
2021/08/16 11:47:40;;;;;;;3.43;1.30;;;;;;;;;;5097933;28;20620;-65
2021/08/16 11:50:09;;;;;;;1.60;1.10;;;;;;;;;;5098039;28;20212;-65
2021/08/16 11:52:38;;;;;;;2.67;1.37;;;;;;;;;;5098192;28;20260;-65
2021/08/16 11:55:07;;;;;;;3.20;1.53;;;;;;;;;;5098167;28;20573;-65
2021/08/16 11:57:36;;;;;;;1.57;1.10;;;;;;;;;;5098203;28;20208;-65
2021/08/16 12:00:05;;;;;;;1.60;1.17;;;;;;;;;;5098550;28;20201;-65
2021/08/16 12:02:35;;;;;;;1.70;1.33;;;;;;;;;;5097744;28;20228;-63
2021/08/16 12:05:04;;;;;;;3.17;1.47;;;;;;;;;;5097558;28;20645;-63
2021/08/16 12:20:57;;;;;;;1.50;1.40;;;;;;;;;;5134356;27;20589;-64
2021/08/16 12:23:26;;;;;;;2.40;1.30;;;;;;;;;;5126501;27;20216;-63
2021/08/16 12:25:54;;;;;;;1.00;0.90;;;;;;;;;;5128904;27;20200;-63
2021/08/16 12:28:23;;;;;;;1.30;1.10;;;;;;;;;;5125135;28;20247;-63
2021/08/16 12:30:51;;;;;;;2.33;1.43;;;;;;;;;;5120252;27;20198;-63
2021/08/16 12:33:19;;;;;;;1.23;1.13;;;;;;;;;;5125034;28;20211;-63
2021/08/16 12:35:59;;;;;;;3.10;1.10;;;;;;;;;;5124154;28;20243;-63
2021/08/16 12:38:28;;;;;;;3.23;1.40;;;;;;;;;;5127570;27;20206;-64
2021/08/16 12:40:59;;;;;;;2.43;0.93;;;;;;;;;;5126380;28;20210;-66
2021/08/16 12:43:35;;;;;;;1.50;1.03;;;;;;;;;;5128811;27;20207;-66
2021/08/16 12:46:03;;;;;;;2.13;0.83;;;;;;;;;;5128225;28;20200;-63
2021/08/16 12:48:38;;;;;;;1.53;1.10;;;;;;;;;;5129430;27;20205;-65
2021/08/16 12:51:07;;;;;;;1.27;1.00;;;;;;;;;;5120049;28;20215;-63
2021/08/16 12:53:37;;;;;;;2.60;1.00;;;;;;;;;;5124907;27;20210;-65
2021/08/16 12:56:05;;;;;;;3.03;0.90;;;;;;;;;;5117369;28;20295;-63
2021/08/16 12:58:33;;;;;;;1.60;1.10;;;;;;;;;;5125037;27;20207;-63
2021/08/16 13:01:01;;;;;;;2.20;1.53;;;;;;;;;;5118495;28;20215;-63
2021/08/16 13:03:29;;;;;;;2.17;0.80;;;;;;;;;;5126739;27;20215;-63
2021/08/16 13:05:57;;;;;;;1.27;1.10;;;;;;;;;;5123514;27;20256;-66
2021/08/16 13:08:27;;;;;;;2.03;1.13;;;;;;;;;;5128173;27;20244;-66
2021/08/16 13:10:54;;;;;;;2.40;1.10;;;;;;;;;;5125161;27;20204;-66
2021/08/16 13:13:22;;;;;;;1.57;0.87;;;;;;;;;;5128300;27;20204;-66
2021/08/16 13:15:50;;;;;;;2.07;1.30;;;;;;;;;;5126181;27;20214;-64
2021/08/16 13:18:18;;;;;;;1.70;0.93;;;;;;;;;;5126789;27;20201;-63
2021/08/16 13:20:48;;;;;;;2.10;1.10;;;;;;;;;;5110054;28;20681;-65
2021/08/16 13:23:16;;;;;;;2.57;1.60;;;;;;;;;;5115639;28;20211;-63
2021/08/16 13:25:46;;;;;;;4.77;1.00;;;;;;;;;;5116310;28;20224;-65
2021/08/16 13:28:14;;;;;;;2.47;1.10;;;;;;;;;;5114232;28;20202;-64
2021/08/16 13:30:42;;;;;;;2.37;1.50;;;;;;;;;;5111563;28;20243;-66
2021/08/16 13:33:10;;;;;;;2.30;1.03;;;;;;;;;;5114255;28;20648;-66
2021/08/16 13:35:38;;;;;;;1.57;1.10;;;;;;;;;;5113040;28;20231;-66
2021/08/16 13:38:06;;;;;;;1.13;1.03;;;;;;;;;;5114708;28;20263;-66
2021/08/16 13:40:34;;;;;;;1.47;1.10;;;;;;;;;;5113551;28;20205;-63
2021/08/16 13:43:04;;;;;;;3.63;1.17;;;;;;;;;;5115139;28;20204;-63
2021/08/16 13:45:32;;;;;;;1.93;1.50;;;;;;;;;;5113311;28;20317;-63
2021/08/16 13:48:00;;;;;;;1.13;1.03;;;;;;;;;;5107352;28;20778;-66
2021/08/16 13:50:28;;;;;;;1.73;1.00;;;;;;;;;;5102986;28;20221;-63
2021/08/16 13:52:57;;;;;;;2.30;1.00;;;;;;;;;;5108666;28;20217;-63
2021/08/16 13:55:27;;;;;;;3.90;1.03;;;;;;;;;;5115774;28;20305;-63
2021/08/16 13:57:55;;;;;;;4.10;0.97;;;;;;;;;;5116143;28;20601;-63
2021/08/16 14:00:25;;;;;;;1.97;1.00;;;;;;;;;;5109488;28;20219;-66
2021/08/16 14:02:53;;;;;;;1.53;1.00;;;;;;;;;;5117339;28;20192;-65
2021/08/16 14:05:21;;;;;;;2.23;1.40;;;;;;;;;;5110474;28;20251;-64
2021/08/16 14:07:49;;;;;;;2.57;1.30;;;;;;;;;;5116607;28;20211;-64
2021/08/16 14:10:18;;;;;;;1.60;0.80;;;;;;;;;;5100025;28;20228;-64
2021/08/16 14:12:46;;;;;;;1.67;1.20;;;;;;;;;;5113066;28;20198;-64
2021/08/16 14:15:14;;;;;;;2.07;1.00;;;;;;;;;;5101187;28;20225;-64
2021/08/16 14:17:43;;;;;;;1.70;1.00;;;;;;;;;;5114086;28;20199;-64
2021/08/16 14:20:11;;;;;;;2.03;1.23;;;;;;;;;;5104264;28;20313;-64
2021/08/16 14:22:39;;;;;;;3.27;1.13;;;;;;;;;;5117498;28;20579;-64
2021/08/16 14:25:08;;;;;;;0.93;0.87;;;;;;;;;;5111632;28;20229;-64
2021/08/16 14:27:36;;;;;;;1.03;1.03;;;;;;;;;;5117557;28;20197;-64
2021/08/16 14:30:04;;;;;;;2.10;1.00;;;;;;;;;;5107177;28;20225;-64
2021/08/16 14:32:33;;;;;;;2.17;1.10;;;;;;;;;;5116415;28;20201;-64
2021/08/16 14:35:03;;;;;;;1.93;0.90;;;;;;;;;;5109595;28;20235;-64
2021/08/16 14:37:30;;;;;;;1.67;0.60;;;;;;;;;;5117406;28;20723;-64
2021/08/16 14:39:58;;;;;;;3.23;1.10;;;;;;;;;;5100908;28;20237;-66
2021/08/16 14:42:27;;;;;;;2.77;1.20;;;;;;;;;;5111185;28;20295;-66
2021/08/16 14:44:55;;;;;;;2.20;0.80;;;;;;;;;;5107650;28;20731;-65
2021/08/16 14:47:22;;;;;;;2.93;1.20;;;;;;;;;;5111905;28;20294;-65
2021/08/16 14:49:52;;;;;;;1.43;0.90;;;;;;;;;;5107010;28;20231;-66
2021/08/16 14:52:21;;;;;;;1.67;1.30;;;;;;;;;;5112992;28;20730;-63
2021/08/16 14:54:49;;;;;;;2.37;0.97;;;;;;;;;;5103045;28;20311;-63
2021/08/16 14:57:17;;;;;;;1.13;1.03;;;;;;;;;;5113978;28;20215;-63
2021/08/16 14:59:45;;;;;;;0.83;0.80;;;;;;;;;;5109794;28;20211;-64
2021/08/16 15:02:13;;;;;;;1.30;0.90;;;;;;;;;;5114431;28;20221;-63
2021/08/16 15:04:41;;;;;;;2.27;0.80;;;;;;;;;;5105147;28;20231;-63
2021/08/16 15:07:09;;;;;;;1.13;0.80;;;;;;;;;;5115083;28;20693;-66